sensor_id;sensor_type;location;lat;lon;timestamp;pressure;altitude;pressure_sealevel;temperature;humidity
78625;BME280;67944;0.000;0.000;2023-05-10T00:01:46;100009.66;;;24.13;44.76
78625;BME280;67944;0.000;0.000;2023-05-10T00:04:12;100008.03;;;24.12;45.53
78625;BME280;67944;0.000;0.000;2023-05-10T00:06:37;100012.31;;;24.13;44.74
78625;BME280;67944;0.000;0.000;2023-05-10T00:09:03;100006.41;;;24.11;44.77
78625;BME280;67944;0.000;0.000;2023-05-10T00:11:29;100004.97;;;24.09;45.13
78625;BME280;67944;0.000;0.000;2023-05-10T00:13:54;100003.13;;;24.09;45.46
78625;BME280;67944;0.000;0.000;2023-05-10T00:16:20;100001.50;;;24.08;45.37
78625;BME280;67944;0.000;0.000;2023-05-10T00:18:45;100013.38;;;24.06;45.07
78625;BME280;67944;0.000;0.000;2023-05-10T00:21:11;100001.09;;;24.05;45.04
78625;BME280;67944;0.000;0.000;2023-05-10T00:23:36;100006.66;;;24.03;44.91
78625;BME280;67944;0.000;0.000;2023-05-10T00:26:02;99999.94;;;24.01;45.40
78625;BME280;67944;0.000;0.000;2023-05-10T00:28:28;100005.25;;;24.01;44.82
78625;BME280;67944;0.000;0.000;2023-05-10T00:30:54;100005.66;;;23.98;45.02
78625;BME280;67944;0.000;0.000;2023-05-10T00:33:19;100007.50;;;23.97;45.10
78625;BME280;67944;0.000;0.000;2023-05-10T00:35:45;100009.56;;;23.95;45.21
78625;BME280;67944;0.000;0.000;2023-05-10T00:38:10;100013.03;;;23.96;45.18
78625;BME280;67944;0.000;0.000;2023-05-10T00:40:36;100009.78;;;23.93;45.04
78625;BME280;67944;0.000;0.000;2023-05-10T00:43:02;100010.81;;;23.92;45.52
78625;BME280;67944;0.000;0.000;2023-05-10T00:45:30;100011.03;;;23.91;44.92
78625;BME280;67944;0.000;0.000;2023-05-10T00:47:56;100008.56;;;23.89;45.41
78625;BME280;67944;0.000;0.000;2023-05-10T00:50:22;100013.06;;;23.89;45.70
78625;BME280;67944;0.000;0.000;2023-05-10T00:52:49;100011.44;;;23.88;44.95
78625;BME280;67944;0.000;0.000;2023-05-10T00:55:14;100007.16;;;23.87;45.32
78625;BME280;67944;0.000;0.000;2023-05-10T00:57:41;100012.69;;;23.85;44.97
78625;BME280;67944;0.000;0.000;2023-05-10T01:00:07;100010.22;;;23.84;45.53
78625;BME280;67944;0.000;0.000;2023-05-10T01:02:34;100012.88;;;23.84;45.65
78625;BME280;67944;0.000;0.000;2023-05-10T01:04:59;100009.41;;;23.83;45.58
78625;BME280;67944;0.000;0.000;2023-05-10T01:07:25;100011.25;;;23.83;45.38
78625;BME280;67944;0.000;0.000;2023-05-10T01:09:50;100006.97;;;23.82;45.71
78625;BME280;67944;0.000;0.000;2023-05-10T01:12:16;100011.50;;;23.81;45.75
78625;BME280;67944;0.000;0.000;2023-05-10T01:14:42;100019.69;;;23.80;45.28
78625;BME280;67944;0.000;0.000;2023-05-10T01:17:10;100020.91;;;23.77;45.33
78625;BME280;67944;0.000;0.000;2023-05-10T01:19:36;100010.50;;;23.76;45.28
78625;BME280;67944;0.000;0.000;2023-05-10T01:31:08;100025.66;;;23.69;45.78
78625;BME280;67944;0.000;0.000;2023-05-10T01:33:49;100020.53;;;23.67;45.53
78625;BME280;67944;0.000;0.000;2023-05-10T01:36:41;100028.72;;;23.66;45.58
78625;BME280;67944;0.000;0.000;2023-05-10T01:39:25;100021.78;;;23.65;45.80
78625;BME280;67944;0.000;0.000;2023-05-10T01:42:08;100020.97;;;23.64;45.48
78625;BME280;67944;0.000;0.000;2023-05-10T01:47:38;100028.53;;;23.61;45.55
78625;BME280;67944;0.000;0.000;2023-05-10T01:50:11;100030.38;;;23.60;45.65
78625;BME280;67944;0.000;0.000;2023-05-10T01:52:50;100033.03;;;23.60;45.82
78625;BME280;67944;0.000;0.000;2023-05-10T01:55:20;100038.59;;;23.58;45.64
78625;BME280;67944;0.000;0.000;2023-05-10T01:57:52;100042.28;;;23.57;45.83
78625;BME280;67944;0.000;0.000;2023-05-10T02:00:20;100044.13;;;23.57;45.71
78625;BME280;67944;0.000;0.000;2023-05-10T02:02:47;100046.78;;;23.57;45.88
78625;BME280;67944;0.000;0.000;2023-05-10T02:05:16;100043.28;;;23.56;45.56
78625;BME280;67944;0.000;0.000;2023-05-10T02:07:43;100052.28;;;23.55;45.88
78625;BME280;67944;0.000;0.000;2023-05-10T02:10:11;100048.81;;;23.55;45.68
78625;BME280;67944;0.000;0.000;2023-05-10T02:12:44;100055.97;;;23.54;45.86
78625;BME280;67944;0.000;0.000;2023-05-10T02:15:15;100046.38;;;23.53;45.63
78625;BME280;67944;0.000;0.000;2023-05-10T02:17:43;100050.88;;;23.53;45.47
78625;BME280;67944;0.000;0.000;2023-05-10T02:20:12;100050.06;;;23.52;45.91
78625;BME280;67944;0.000;0.000;2023-05-10T02:22:40;100051.91;;;23.52;45.87
78625;BME280;67944;0.000;0.000;2023-05-10T02:25:08;100051.03;;;23.51;45.89
78625;BME280;67944;0.000;0.000;2023-05-10T02:27:36;100055.53;;;23.51;45.30
78625;BME280;67944;0.000;0.000;2023-05-10T02:30:03;100047.78;;;23.49;45.83
78625;BME280;67944;0.000;0.000;2023-05-10T02:32:30;100061.88;;;23.50;45.50
78625;BME280;67944;0.000;0.000;2023-05-10T02:34:58;100058.41;;;23.49;45.78
78625;BME280;67944;0.000;0.000;2023-05-10T02:37:25;100054.94;;;23.49;45.53
78625;BME280;67944;0.000;0.000;2023-05-10T02:39:54;100054.13;;;23.48;45.74
78625;BME280;67944;0.000;0.000;2023-05-10T02:42:26;100055.13;;;23.47;45.93
78625;BME280;67944;0.000;0.000;2023-05-10T02:44:57;100050.84;;;23.46;45.87
78625;BME280;67944;0.000;0.000;2023-05-10T02:47:24;100051.66;;;23.47;45.58
78625;BME280;67944;0.000;0.000;2023-05-10T02:49:49;100055.34;;;23.46;45.42
78625;BME280;67944;0.000;0.000;2023-05-10T02:52:21;100057.19;;;23.45;45.59
78625;BME280;67944;0.000;0.000;2023-05-10T02:54:52;100053.72;;;23.45;45.77
78625;BME280;67944;0.000;0.000;2023-05-10T02:57:26;100055.56;;;23.44;45.57
78625;BME280;67944;0.000;0.000;2023-05-10T02:59:52;100056.56;;;23.43;45.60
78625;BME280;67944;0.000;0.000;2023-05-10T03:02:18;100053.09;;;23.43;45.67
78625;BME280;67944;0.000;0.000;2023-05-10T03:04:43;100058.63;;;23.41;45.79
78625;BME280;67944;0.000;0.000;2023-05-10T03:07:09;100062.09;;;23.42;45.54
78625;BME280;67944;0.000;0.000;2023-05-10T03:09:35;100064.97;;;23.40;45.95
78625;BME280;67944;0.000;0.000;2023-05-10T03:12:12;100064.16;;;23.40;46.04
78625;BME280;67944;0.000;0.000;2023-05-10T03:15:00;100068.63;;;23.39;45.29
78625;BME280;67944;0.000;0.000;2023-05-10T03:17:43;100067.81;;;23.39;45.60
78625;BME280;67944;0.000;0.000;2023-05-10T03:20:26;100071.28;;;23.39;45.93
78625;BME280;67944;0.000;0.000;2023-05-10T03:25:43;100073.38;;;23.31;45.86
78625;BME280;67944;0.000;0.000;2023-05-10T03:28:13;100078.09;;;23.22;45.66
78625;BME280;67944;0.000;0.000;2023-05-10T03:30:41;100086.69;;;23.11;45.82
78625;BME280;67944;0.000;0.000;2023-05-10T03:33:06;100081.78;;;23.01;45.74
78625;BME280;67944;0.000;0.000;2023-05-10T03:35:32;100089.38;;;22.91;45.64
78625;BME280;67944;0.000;0.000;2023-05-10T03:37:57;100078.53;;;22.79;45.88
78625;BME280;67944;0.000;0.000;2023-05-10T03:40:24;100081.75;;;22.68;45.82
78625;BME280;67944;0.000;0.000;2023-05-10T03:42:49;100081.94;;;22.60;45.91
78625;BME280;67944;0.000;0.000;2023-05-10T03:45:15;100092.16;;;22.50;46.02
78625;BME280;67944;0.000;0.000;2023-05-10T03:47:40;100085.19;;;22.42;46.13
78625;BME280;67944;0.000;0.000;2023-05-10T03:50:06;100080.06;;;22.34;46.13
78625;BME280;67944;0.000;0.000;2023-05-10T03:52:32;100073.94;;;22.27;46.44
78625;BME280;67944;0.000;0.000;2023-05-10T03:54:57;100073.91;;;22.20;46.37
78625;BME280;67944;0.000;0.000;2023-05-10T03:57:23;100075.31;;;22.16;46.50
78625;BME280;67944;0.000;0.000;2023-05-10T03:59:48;100081.84;;;22.14;46.58
78625;BME280;67944;0.000;0.000;2023-05-10T04:02:14;100075.72;;;22.13;46.88
78625;BME280;67944;0.000;0.000;2023-05-10T04:04:39;100069.41;;;22.14;46.83
78625;BME280;67944;0.000;0.000;2023-05-10T04:07:05;100065.34;;;22.18;46.77
78625;BME280;67944;0.000;0.000;2023-05-10T04:09:30;100072.69;;;22.23;47.00
78625;BME280;67944;0.000;0.000;2023-05-10T04:11:56;100069.25;;;22.29;47.18
78625;BME280;67944;0.000;0.000;2023-05-10T04:14:21;100074.56;;;22.36;47.11
78625;BME280;67944;0.000;0.000;2023-05-10T04:16:46;100080.69;;;22.43;47.34
78625;BME280;67944;0.000;0.000;2023-05-10T04:19:12;100083.38;;;22.49;47.09
78625;BME280;67944;0.000;0.000;2023-05-10T04:21:37;100096.03;;;22.54;46.90
78625;BME280;67944;0.000;0.000;2023-05-10T04:24:03;100099.28;;;22.56;47.15
78625;BME280;67944;0.000;0.000;2023-05-10T04:26:28;100103.38;;;22.58;46.87
78625;BME280;67944;0.000;0.000;2023-05-10T04:28:54;100109.31;;;22.61;46.92
78625;BME280;67944;0.000;0.000;2023-05-10T04:31:19;100102.16;;;22.61;46.98
78625;BME280;67944;0.000;0.000;2023-05-10T04:33:45;100103.41;;;22.65;46.93
78625;BME280;67944;0.000;0.000;2023-05-10T04:36:10;100102.81;;;22.70;46.87
78625;BME280;67944;0.000;0.000;2023-05-10T04:38:36;100109.13;;;22.75;46.99
78625;BME280;67944;0.000;0.000;2023-05-10T04:41:09;100112.63;;;22.82;47.09
78625;BME280;67944;0.000;0.000;2023-05-10T04:43:36;100110.81;;;22.89;46.76
78625;BME280;67944;0.000;0.000;2023-05-10T04:46:02;100108.94;;;22.97;46.56
78625;BME280;67944;0.000;0.000;2023-05-10T04:48:27;100116.09;;;23.03;46.86
78625;BME280;67944;0.000;0.000;2023-05-10T04:50:53;100120.41;;;23.10;46.74
78625;BME280;67944;0.000;0.000;2023-05-10T04:53:18;100123.47;;;23.14;46.65
78625;BME280;67944;0.000;0.000;2023-05-10T04:55:43;100129.78;;;23.19;46.56
78625;BME280;67944;0.000;0.000;2023-05-10T04:58:09;100127.34;;;23.24;46.48
78625;BME280;67944;0.000;0.000;2023-05-10T05:00:34;100136.53;;;23.29;46.52
78625;BME280;67944;0.000;0.000;2023-05-10T05:03:00;100140.44;;;23.33;46.11
78625;BME280;67944;0.000;0.000;2023-05-10T05:05:26;100148.38;;;23.39;46.46
78625;BME280;67944;0.000;0.000;2023-05-10T05:07:51;100147.97;;;23.42;46.10
78625;BME280;67944;0.000;0.000;2023-05-10T05:10:17;100144.91;;;23.45;45.91
78625;BME280;67944;0.000;0.000;2023-05-10T05:12:42;100144.28;;;23.50;46.12
78625;BME280;67944;0.000;0.000;2023-05-10T05:15:08;100143.91;;;23.53;46.32
78625;BME280;67944;0.000;0.000;2023-05-10T05:17:35;100145.34;;;23.55;46.06
78625;BME280;67944;0.000;0.000;2023-05-10T05:20:00;100157.19;;;23.60;45.80
78625;BME280;67944;0.000;0.000;2023-05-10T05:22:26;100151.44;;;23.63;45.99
78625;BME280;67944;0.000;0.000;2023-05-10T05:24:55;100152.66;;;23.67;45.82
78625;BME280;67944;0.000;0.000;2023-05-10T05:27:21;100153.06;;;23.70;46.12
78625;BME280;67944;0.000;0.000;2023-05-10T05:29:50;100150.81;;;23.74;46.04
78625;BME280;67944;0.000;0.000;2023-05-10T05:32:16;100153.06;;;23.77;45.81
78625;BME280;67944;0.000;0.000;2023-05-10T05:34:41;100148.34;;;23.79;45.35
78625;BME280;67944;0.000;0.000;2023-05-10T05:37:07;100148.97;;;23.81;45.70
78625;BME280;67944;0.000;0.000;2023-05-10T05:39:32;100151.38;;;23.82;45.63
78625;BME280;67944;0.000;0.000;2023-05-10T05:41:58;100161.81;;;23.84;45.47
78625;BME280;67944;0.000;0.000;2023-05-10T05:44:23;100160.78;;;23.85;45.61
78625;BME280;67944;0.000;0.000;2023-05-10T05:46:49;100159.56;;;23.87;45.75
78625;BME280;67944;0.000;0.000;2023-05-10T05:49:14;100159.16;;;23.90;45.39
78625;BME280;67944;0.000;0.000;2023-05-10T05:51:39;100165.06;;;23.92;45.67
78625;BME280;67944;0.000;0.000;2023-05-10T05:54:05;100168.13;;;23.96;45.43
78625;BME280;67944;0.000;0.000;2023-05-10T05:56:31;100167.13;;;23.97;45.38
78625;BME280;67944;0.000;0.000;2023-05-10T05:58:56;100172.22;;;23.99;45.75
78625;BME280;67944;0.000;0.000;2023-05-10T06:01:22;100168.53;;;24.00;45.63
78625;BME280;67944;0.000;0.000;2023-05-10T06:03:47;100168.53;;;24.00;45.63
78625;BME280;67944;0.000;0.000;2023-05-10T06:06:13;100169.34;;;24.00;45.47
78625;BME280;67944;0.000;0.000;2023-05-10T06:08:38;100177.13;;;24.02;44.99
78625;BME280;67944;0.000;0.000;2023-05-10T06:11:04;100185.13;;;24.02;45.61
78625;BME280;67944;0.000;0.000;2023-05-10T06:13:29;100179.34;;;24.05;45.24
78625;BME280;67944;0.000;0.000;2023-05-10T06:16:01;100189.16;;;24.04;45.07
78625;BME280;67944;0.000;0.000;2023-05-10T06:18:27;100186.97;;;24.01;45.60
78625;BME280;67944;0.000;0.000;2023-05-10T06:20:52;100191.47;;;24.01;44.82
78625;BME280;67944;0.000;0.000;2023-05-10T06:23:18;100191.47;;;24.01;45.09
78625;BME280;67944;0.000;0.000;2023-05-10T06:25:43;100193.91;;;24.02;45.71
78625;BME280;67944;0.000;0.000;2023-05-10T06:28:09;100194.72;;;24.03;45.22
78625;BME280;67944;0.000;0.000;2023-05-10T06:30:36;100192.88;;;24.03;45.13
78625;BME280;67944;0.000;0.000;2023-05-10T06:33:02;100197.97;;;24.05;44.91
78625;BME280;67944;0.000;0.000;2023-05-10T06:35:28;100201.44;;;24.05;44.96
78625;BME280;67944;0.000;0.000;2023-05-10T06:37:53;100196.94;;;24.06;44.91
78625;BME280;67944;0.000;0.000;2023-05-10T06:40:19;100198.59;;;24.07;45.59
78625;BME280;67944;0.000;0.000;2023-05-10T06:42:45;100194.06;;;24.07;45.45
78625;BME280;67944;0.000;0.000;2023-05-10T06:45:12;100198.38;;;24.08;45.42
78625;BME280;67944;0.000;0.000;2023-05-10T06:47:37;100198.97;;;24.10;45.22
78625;BME280;67944;0.000;0.000;2023-05-10T06:50:03;100201.22;;;24.13;45.61
78625;BME280;67944;0.000;0.000;2023-05-10T06:52:28;100199.19;;;24.15;45.38
78625;BME280;67944;0.000;0.000;2023-05-10T06:54:54;100198.97;;;24.17;45.49
78625;BME280;67944;0.000;0.000;2023-05-10T06:57:19;100201.22;;;24.20;45.62
78625;BME280;67944;0.000;0.000;2023-05-10T06:59:45;100208.19;;;24.21;45.42
78625;BME280;67944;0.000;0.000;2023-05-10T07:02:11;100205.72;;;24.19;45.38
78625;BME280;67944;0.000;0.000;2023-05-10T07:04:36;100204.09;;;24.18;45.04
78625;BME280;67944;0.000;0.000;2023-05-10T07:07:02;100204.28;;;24.17;44.92
78625;BME280;67944;0.000;0.000;2023-05-10T07:09:27;100213.31;;;24.16;45.34
78625;BME280;67944;0.000;0.000;2023-05-10T07:11:53;100202.66;;;24.16;44.58
78625;BME280;67944;0.000;0.000;2023-05-10T07:14:18;100206.13;;;24.16;45.46
78625;BME280;67944;0.000;0.000;2023-05-10T07:16:44;100208.78;;;24.16;45.64
78625;BME280;67944;0.000;0.000;2023-05-10T07:19:09;100212.06;;;24.18;44.75
78625;BME280;67944;0.000;0.000;2023-05-10T07:21:36;100216.38;;;24.19;44.84
78625;BME280;67944;0.000;0.000;2023-05-10T07:24:01;100218.00;;;24.20;44.87
78625;BME280;67944;0.000;0.000;2023-05-10T07:26:27;100220.44;;;24.22;45.36
78625;BME280;67944;0.000;0.000;2023-05-10T07:28:52;100215.94;;;24.22;45.18
78625;BME280;67944;0.000;0.000;2023-05-10T07:31:17;100210.63;;;24.22;45.20
78625;BME280;67944;0.000;0.000;2023-05-10T07:33:43;100210.63;;;24.22;45.14
78625;BME280;67944;0.000;0.000;2023-05-10T07:36:08;100214.72;;;24.25;44.99
78625;BME280;67944;0.000;0.000;2023-05-10T07:38:34;100222.50;;;24.26;45.10
78625;BME280;67944;0.000;0.000;2023-05-10T07:40:59;100223.09;;;24.29;45.46
78625;BME280;67944;0.000;0.000;2023-05-10T07:43:25;100216.75;;;24.30;45.21
78625;BME280;67944;0.000;0.000;2023-05-10T07:45:50;100228.00;;;24.32;45.37
78625;BME280;67944;0.000;0.000;2023-05-10T07:48:16;100224.13;;;24.34;45.28
78625;BME280;67944;0.000;0.000;2023-05-10T07:50:42;100228.41;;;24.35;45.32
78625;BME280;67944;0.000;0.000;2023-05-10T07:53:07;100223.50;;;24.39;45.41
78625;BME280;67944;0.000;0.000;2023-05-10T07:55:32;100222.47;;;24.40;44.70
78625;BME280;67944;0.000;0.000;2023-05-10T07:57:58;100225.53;;;24.43;45.64
78625;BME280;67944;0.000;0.000;2023-05-10T08:00:26;100230.63;;;24.45;45.12
78625;BME280;67944;0.000;0.000;2023-05-10T08:02:52;100233.88;;;24.47;44.85
78625;BME280;67944;0.000;0.000;2023-05-10T08:05:18;100229.16;;;24.49;45.06
78625;BME280;67944;0.000;0.000;2023-05-10T08:07:43;100225.25;;;24.51;45.16
78625;BME280;67944;0.000;0.000;2023-05-10T08:10:09;100232.00;;;24.54;45.17
78625;BME280;67944;0.000;0.000;2023-05-10T08:12:36;100231.00;;;24.55;44.75
78625;BME280;67944;0.000;0.000;2023-05-10T08:15:02;100231.59;;;24.57;44.68
78625;BME280;67944;0.000;0.000;2023-05-10T08:17:28;100226.06;;;24.58;45.02
78625;BME280;67944;0.000;0.000;2023-05-10T08:19:53;100223.19;;;24.60;44.93
78625;BME280;67944;0.000;0.000;2023-05-10T08:22:19;100237.94;;;24.63;44.68
78625;BME280;67944;0.000;0.000;2023-05-10T08:24:44;100223.78;;;24.62;44.82
78625;BME280;67944;0.000;0.000;2023-05-10T08:27:10;100229.94;;;24.63;44.81
78625;BME280;67944;0.000;0.000;2023-05-10T08:29:37;100227.28;;;24.63;44.51
78625;BME280;67944;0.000;0.000;2023-05-10T08:32:02;100235.06;;;24.64;44.60
78625;BME280;67944;0.000;0.000;2023-05-10T08:34:28;100234.63;;;24.67;44.75
78625;BME280;67944;0.000;0.000;2023-05-10T08:36:53;100235.22;;;24.69;44.54
78625;BME280;67944;0.000;0.000;2023-05-10T08:39:19;100226.78;;;24.72;44.90
78625;BME280;67944;0.000;0.000;2023-05-10T08:41:46;100230.06;;;24.74;45.23
78625;BME280;67944;0.000;0.000;2023-05-10T08:44:14;100225.97;;;24.78;44.99
78625;BME280;67944;0.000;0.000;2023-05-10T08:46:46;100230.84;;;24.81;44.65
78625;BME280;67944;0.000;0.000;2023-05-10T08:49:17;100235.75;;;24.84;44.19
78625;BME280;67944;0.000;0.000;2023-05-10T08:51:50;100237.41;;;24.85;44.34
78625;BME280;67944;0.000;0.000;2023-05-10T08:54:16;100239.63;;;24.88;44.12
78625;BME280;67944;0.000;0.000;2023-05-10T08:56:42;100240.22;;;24.90;44.56
78625;BME280;67944;0.000;0.000;2023-05-10T08:59:08;100248.00;;;24.92;43.85
78625;BME280;67944;0.000;0.000;2023-05-10T09:01:35;100238.16;;;24.92;44.67
78625;BME280;67944;0.000;0.000;2023-05-10T09:04:02;100245.94;;;24.94;43.90
78625;BME280;67944;0.000;0.000;2023-05-10T09:06:28;100246.97;;;24.93;44.37
78625;BME280;67944;0.000;0.000;2023-05-10T09:08:54;100255.88;;;24.80;43.20
78625;BME280;67944;0.000;0.000;2023-05-10T09:11:20;100256.69;;;24.74;43.12
78625;BME280;67944;0.000;0.000;2023-05-10T09:13:48;100257.13;;;24.71;43.57
78625;BME280;67944;0.000;0.000;2023-05-10T09:16:13;100257.94;;;24.72;43.25
78625;BME280;67944;0.000;0.000;2023-05-10T09:18:39;100259.56;;;24.73;43.27
78625;BME280;67944;0.000;0.000;2023-05-10T09:21:04;100254.25;;;24.73;43.20
78625;BME280;67944;0.000;0.000;2023-05-10T09:23:30;100257.31;;;24.76;42.58
78625;BME280;67944;0.000;0.000;2023-05-10T09:26:15;100265.69;;;24.80;42.65
78625;BME280;67944;0.000;0.000;2023-05-10T09:28:52;100258.72;;;24.85;43.09
78625;BME280;67944;0.000;0.000;2023-05-10T09:31:17;100253.78;;;24.89;42.96
78625;BME280;67944;0.000;0.000;2023-05-10T09:33:44;100256.81;;;24.92;42.56
78625;BME280;67944;0.000;0.000;2023-05-10T09:36:10;100267.06;;;24.96;42.85
78625;BME280;67944;0.000;0.000;2023-05-10T09:38:46;100268.28;;;25.00;42.83
78625;BME280;67944;0.000;0.000;2023-05-10T09:41:21;100268.06;;;25.01;42.20
78625;BME280;67944;0.000;0.000;2023-05-10T09:43:47;100267.03;;;25.02;42.55
78625;BME280;67944;0.000;0.000;2023-05-10T09:46:13;100274.81;;;25.04;41.65
78625;BME280;67944;0.000;0.000;2023-05-10T09:48:43;100278.31;;;25.04;41.57
78625;BME280;67944;0.000;0.000;2023-05-10T09:51:09;100269.28;;;25.05;41.68
78625;BME280;67944;0.000;0.000;2023-05-10T09:53:35;100271.94;;;25.05;41.08
78625;BME280;67944;0.000;0.000;2023-05-10T09:56:01;100273.59;;;25.06;41.73
78625;BME280;67944;0.000;0.000;2023-05-10T09:58:26;100274.41;;;25.07;41.65
78625;BME280;67944;0.000;0.000;2023-05-10T10:00:52;100278.69;;;25.08;41.45
78625;BME280;67944;0.000;0.000;2023-05-10T10:03:19;100273.16;;;25.09;41.80
78625;BME280;67944;0.000;0.000;2023-05-10T10:05:47;100268.84;;;25.08;41.25
78625;BME280;67944;0.000;0.000;2023-05-10T10:08:14;100277.97;;;24.87;40.78
78625;BME280;67944;0.000;0.000;2023-05-10T10:10:40;100286.22;;;24.73;40.37
78625;BME280;67944;0.000;0.000;2023-05-10T10:13:06;100282.78;;;24.66;40.86
78625;BME280;67944;0.000;0.000;2023-05-10T10:15:33;100296.31;;;24.64;40.83
78625;BME280;67944;0.000;0.000;2023-05-10T10:18:00;100289.13;;;24.65;41.23
78625;BME280;67944;0.000;0.000;2023-05-10T10:20:26;100285.03;;;24.62;40.73
78625;BME280;67944;0.000;0.000;2023-05-10T10:22:52;100288.72;;;24.61;40.53
78625;BME280;67944;0.000;0.000;2023-05-10T10:25:19;100291.41;;;24.61;40.70
78625;BME280;67944;0.000;0.000;2023-05-10T10:28:18;100283.41;;;24.61;40.86
78625;BME280;67944;0.000;0.000;2023-05-10T10:30:52;100292.41;;;24.60;39.71
78625;BME280;67944;0.000;0.000;2023-05-10T10:36:00;100304.28;;;24.64;40.11
78625;BME280;67944;0.000;0.000;2023-05-10T10:38:25;100301.78;;;24.69;40.67
78625;BME280;67944;0.000;0.000;2023-05-10T10:41:10;100303.63;;;24.75;40.34
78625;BME280;67944;0.000;0.000;2023-05-10T10:43:46;100307.50;;;24.79;39.85
78625;BME280;67944;0.000;0.000;2023-05-10T10:46:16;100297.25;;;24.83;40.23
78625;BME280;67944;0.000;0.000;2023-05-10T10:48:51;100296.00;;;24.85;40.47
78625;BME280;67944;0.000;0.000;2023-05-10T10:51:37;100295.59;;;24.88;39.90
78625;BME280;67944;0.000;0.000;2023-05-10T10:54:09;100295.13;;;24.91;39.69
78625;BME280;67944;0.000;0.000;2023-05-10T10:56:35;100292.06;;;24.94;39.81
78625;BME280;67944;0.000;0.000;2023-05-10T10:59:01;100288.19;;;24.97;40.15
78625;BME280;67944;0.000;0.000;2023-05-10T11:01:33;100293.09;;;25.00;39.85
78625;BME280;67944;0.000;0.000;2023-05-10T11:06:36;100305.78;;;25.05;38.96
78625;BME280;67944;0.000;0.000;2023-05-10T11:09:10;100288.97;;;25.04;39.19
78625;BME280;67944;0.000;0.000;2023-05-10T11:11:49;100292.44;;;25.05;38.70
78625;BME280;67944;0.000;0.000;2023-05-10T11:14:20;100292.25;;;25.06;38.13
78625;BME280;67944;0.000;0.000;2023-05-10T11:16:46;100299.00;;;25.09;38.52
78625;BME280;67944;0.000;0.000;2023-05-10T11:19:14;100303.88;;;25.12;38.23
78625;BME280;67944;0.000;0.000;2023-05-10T11:21:50;100294.84;;;25.13;38.79
78625;BME280;67944;0.000;0.000;2023-05-10T11:24:20;100303.44;;;25.15;38.14
78625;BME280;67944;0.000;0.000;2023-05-10T11:26:46;100307.09;;;25.20;38.47
78625;BME280;67944;0.000;0.000;2023-05-10T11:29:15;100303.19;;;25.23;38.23
78625;BME280;67944;0.000;0.000;2023-05-10T11:31:45;100305.44;;;25.26;38.54
78625;BME280;67944;0.000;0.000;2023-05-10T11:34:22;100310.13;;;25.31;38.04
78625;BME280;67944;0.000;0.000;2023-05-10T11:36:52;100310.50;;;25.34;38.66
78625;BME280;67944;0.000;0.000;2023-05-10T11:39:19;100301.84;;;25.39;38.71
78625;BME280;67944;0.000;0.000;2023-05-10T11:41:48;100315.56;;;25.42;38.77
78625;BME280;67944;0.000;0.000;2023-05-10T11:44:13;100305.31;;;25.46;38.38
78625;BME280;67944;0.000;0.000;2023-05-10T11:46:39;100305.91;;;25.48;38.76
78625;BME280;67944;0.000;0.000;2023-05-10T11:49:04;100305.25;;;25.52;38.43
78625;BME280;67944;0.000;0.000;2023-05-10T11:51:36;100312.00;;;25.55;38.02
78625;BME280;67944;0.000;0.000;2023-05-10T11:54:08;100306.22;;;25.58;38.09
78625;BME280;67944;0.000;0.000;2023-05-10T11:56:34;100304.75;;;25.62;38.49
78625;BME280;67944;0.000;0.000;2023-05-10T11:59:00;100306.22;;;25.65;38.09
78625;BME280;67944;0.000;0.000;2023-05-10T12:01:28;100311.34;;;25.66;37.94
78625;BME280;67944;0.000;0.000;2023-05-10T12:03:56;100320.38;;;25.65;37.75
78625;BME280;67944;0.000;0.000;2023-05-10T12:06:30;100316.28;;;25.63;37.51
78625;BME280;67944;0.000;0.000;2023-05-10T12:08:57;100317.09;;;25.56;37.94
78625;BME280;67944;0.000;0.000;2023-05-10T12:11:27;100314.66;;;25.55;37.12
78625;BME280;67944;0.000;0.000;2023-05-10T12:13:54;100314.91;;;25.53;37.28
78625;BME280;67944;0.000;0.000;2023-05-10T12:16:22;100308.34;;;25.49;37.46
78625;BME280;67944;0.000;0.000;2023-05-10T12:18:52;100311.84;;;25.50;37.53
78625;BME280;67944;0.000;0.000;2023-05-10T12:21:19;100313.25;;;25.52;37.07
78625;BME280;67944;0.000;0.000;2023-05-10T12:23:49;100308.75;;;25.53;37.38
78625;BME280;67944;0.000;0.000;2023-05-10T12:26:15;100308.53;;;25.54;36.97
78625;BME280;67944;0.000;0.000;2023-05-10T12:28:41;100315.47;;;25.55;36.72
78625;BME280;67944;0.000;0.000;2023-05-10T12:31:07;100322.44;;;25.56;37.13
78625;BME280;67944;0.000;0.000;2023-05-10T12:33:41;100317.09;;;25.56;37.12
78625;BME280;67944;0.000;0.000;2023-05-10T12:36:08;100313.88;;;25.54;35.84
78625;BME280;67944;0.000;0.000;2023-05-10T12:38:34;100321.06;;;25.54;36.74
78625;BME280;67944;0.000;0.000;2023-05-10T12:41:03;100319.19;;;25.54;36.76
78625;BME280;67944;0.000;0.000;2023-05-10T12:43:29;100326.13;;;25.55;36.50
78625;BME280;67944;0.000;0.000;2023-05-10T12:45:55;100323.25;;;25.57;35.95
78625;BME280;67944;0.000;0.000;2023-05-10T12:48:21;100323.03;;;25.58;36.50
78625;BME280;67944;0.000;0.000;2023-05-10T12:50:46;100328.38;;;25.58;36.32
78625;BME280;67944;0.000;0.000;2023-05-10T12:53:16;100330.00;;;25.59;35.82
78625;BME280;67944;0.000;0.000;2023-05-10T12:55:42;100332.06;;;25.57;35.94
78625;BME280;67944;0.000;0.000;2023-05-10T12:58:08;100332.28;;;25.56;35.50
78625;BME280;67944;0.000;0.000;2023-05-10T13:00:33;100320.81;;;25.55;35.33
78625;BME280;67944;0.000;0.000;2023-05-10T13:02:59;100328.22;;;25.53;35.38
78625;BME280;67944;0.000;0.000;2023-05-10T13:05:24;100341.56;;;25.53;36.09
78625;BME280;67944;0.000;0.000;2023-05-10T13:07:50;100330.91;;;25.53;35.62
78625;BME280;67944;0.000;0.000;2023-05-10T13:10:15;100337.25;;;25.52;35.59
78625;BME280;67944;0.000;0.000;2023-05-10T13:12:41;100332.34;;;25.49;35.96
78625;BME280;67944;0.000;0.000;2023-05-10T13:15:07;100331.31;;;25.50;35.45
78625;BME280;67944;0.000;0.000;2023-05-10T13:17:32;100332.53;;;25.54;35.51
78625;BME280;67944;0.000;0.000;2023-05-10T13:19:58;100327.56;;;25.58;35.85
78625;BME280;67944;0.000;0.000;2023-05-10T13:22:23;100321.63;;;25.63;35.91